createdAt,value
2019-03-29T00:01:07.770Z,99.90
2019-03-29T00:03:37.915Z,99.90
2019-03-29T00:06:07.434Z,99.90
2019-03-29T00:08:37.232Z,99.90
2019-03-29T00:11:06.791Z,99.90
2019-03-29T00:13:36.218Z,99.90
2019-03-29T00:16:05.863Z,99.90
2019-03-29T00:18:35.969Z,99.90
2019-03-29T00:21:05.818Z,99.90
2019-03-29T00:23:35.322Z,99.90
2019-03-29T00:26:05.079Z,99.90
2019-03-29T00:28:34.598Z,99.90
2019-03-29T00:31:04.611Z,99.90
2019-03-29T00:33:34.094Z,99.90
2019-03-29T00:36:03.714Z,99.90
2019-03-29T00:38:33.247Z,99.90
2019-03-29T00:41:02.827Z,99.90
2019-03-29T00:43:32.282Z,99.90
2019-03-29T00:46:01.899Z,99.90
2019-03-29T00:48:31.563Z,99.90
2019-03-29T00:51:01.167Z,99.90
2019-03-29T00:53:30.667Z,99.90
2019-03-29T00:56:00.263Z,99.90
2019-03-29T00:58:29.807Z,99.90
2019-03-29T01:00:59.920Z,99.90
2019-03-29T01:03:29.527Z,99.90
2019-03-29T01:05:59.475Z,99.90
2019-03-29T01:08:28.984Z,99.90
2019-03-29T01:10:58.503Z,99.90
2019-03-29T01:13:28.079Z,99.90
2019-03-29T01:15:57.612Z,99.90
2019-03-29T01:18:27.184Z,99.90
2019-03-29T01:20:56.704Z,99.90
2019-03-29T01:23:26.391Z,99.90
2019-03-29T01:25:55.996Z,99.90
2019-03-29T01:28:25.665Z,99.90
2019-03-29T01:30:55.180Z,99.90
2019-03-29T01:33:25.051Z,99.90
2019-03-29T01:35:55.124Z,99.90
2019-03-29T01:38:24.772Z,99.90
2019-03-29T01:40:54.376Z,99.90
2019-03-29T01:43:23.868Z,99.90
2019-03-29T01:45:53.445Z,99.90
2019-03-29T01:48:23.119Z,99.90
2019-03-29T01:50:53.011Z,99.90
2019-03-29T01:53:22.814Z,99.90
2019-03-29T01:55:52.268Z,99.90
2019-03-29T01:58:21.686Z,99.90
2019-03-29T02:00:51.556Z,99.90
2019-03-29T02:03:21.020Z,99.90
2019-03-29T02:05:50.545Z,99.90
2019-03-29T02:08:20.153Z,99.90
2019-03-29T02:10:49.725Z,99.90
2019-03-29T02:13:19.333Z,99.90
2019-03-29T02:15:49.233Z,99.90
2019-03-29T02:18:18.829Z,99.90
2019-03-29T02:20:48.341Z,99.90
2019-03-29T02:23:18.305Z,99.90
2019-03-29T02:25:47.813Z,99.90
2019-03-29T02:28:18.873Z,99.90
2019-03-29T02:30:48.428Z,99.90
2019-03-29T02:33:17.859Z,99.90
2019-03-29T07:18:56.941Z,99.90
2019-03-29T07:21:26.545Z,99.90
2019-03-29T07:23:56.376Z,99.90
2019-03-29T07:26:25.964Z,99.90
2019-03-29T07:28:55.584Z,99.90
2019-03-29T07:31:25.105Z,99.90
2019-03-29T07:33:54.648Z,99.90
2019-03-29T07:36:24.275Z,99.90
2019-03-29T07:38:53.897Z,99.90
2019-03-29T07:41:31.875Z,99.90
2019-03-29T07:43:55.181Z,99.90
2019-03-29T07:46:24.717Z,99.90
2019-03-29T07:48:54.345Z,99.90
2019-03-29T07:51:23.961Z,99.90
2019-03-29T07:53:53.497Z,99.90
2019-03-29T07:56:23.197Z,99.90
2019-03-29T07:58:52.869Z,99.90
2019-03-29T08:01:22.541Z,99.90
2019-03-29T08:03:53.211Z,99.90
2019-03-29T08:06:22.949Z,99.90
2019-03-29T08:08:52.633Z,99.90
2019-03-29T08:11:26.335Z,99.90
2019-03-29T08:13:53.969Z,99.90
2019-03-29T08:16:23.585Z,99.90
2019-03-29T08:18:53.589Z,99.90
2019-03-29T08:21:23.447Z,99.90
2019-03-29T08:23:53.006Z,99.90
2019-03-29T08:26:22.867Z,99.90
2019-03-29T08:28:52.417Z,99.90
2019-03-29T08:31:22.027Z,99.90
2019-03-29T08:33:51.510Z,99.90
2019-03-29T08:36:21.206Z,99.90
2019-03-29T08:38:50.710Z,99.90
2019-03-29T08:41:20.354Z,99.90
2019-03-29T08:43:49.894Z,99.90
2019-03-29T08:46:19.398Z,99.90
2019-03-29T08:48:48.846Z,99.90
2019-03-29T08:51:18.418Z,99.90
2019-03-29T08:53:48.363Z,99.90
2019-03-29T08:56:18.425Z,99.90
2019-03-29T08:58:48.000Z,99.90
2019-03-29T09:01:19.288Z,99.90
2019-03-29T09:04:01.449Z,99.90
2019-03-29T09:06:21.023Z,99.90
2019-03-29T09:08:50.719Z,99.90
2019-03-29T09:11:20.238Z,99.90
2019-03-29T09:13:49.742Z,99.90
2019-03-29T09:16:19.339Z,99.90
2019-03-29T09:18:48.847Z,99.90
2019-03-29T09:21:18.495Z,99.90
2019-03-29T09:23:48.387Z,99.90
2019-03-29T09:26:18.012Z,99.90
2019-03-29T09:28:47.802Z,99.90
2019-03-29T09:31:17.422Z,99.90
2019-03-29T09:33:47.579Z,99.90
2019-03-29T09:36:17.155Z,99.90
2019-03-29T09:38:46.800Z,99.90
2019-03-29T09:41:16.619Z,99.90
2019-03-29T09:43:46.167Z,99.90
2019-03-29T09:46:15.624Z,99.90
2019-03-29T09:48:45.486Z,99.90
2019-03-29T09:51:15.075Z,99.90
2019-03-29T09:53:44.678Z,99.90
2019-03-29T09:56:14.279Z,99.90
2019-03-29T09:58:45.223Z,99.90
2019-03-29T10:01:14.980Z,99.90
2019-03-29T10:03:44.608Z,99.90
2019-03-29T10:06:15.480Z,99.90
2019-03-29T10:08:45.191Z,99.90
2019-03-29T10:11:14.736Z,99.90
2019-03-29T10:13:44.359Z,99.90
2019-03-29T10:16:13.904Z,99.90
2019-03-29T10:18:43.348Z,99.90
2019-03-29T10:21:13.007Z,99.90
2019-03-29T10:23:42.532Z,99.90
2019-03-29T10:26:12.068Z,99.90
2019-03-29T10:28:41.508Z,99.90
2019-03-29T10:31:11.156Z,99.90
2019-03-29T10:33:40.743Z,99.90
2019-03-29T10:36:10.256Z,99.90
2019-03-29T10:38:39.768Z,99.90
2019-03-29T10:41:09.817Z,99.90
2019-03-29T10:43:39.955Z,99.90
2019-03-29T10:46:10.028Z,99.90
2019-03-29T10:48:39.668Z,99.90
2019-03-29T10:51:09.304Z,99.90
2019-03-29T10:53:38.873Z,99.90
2019-03-29T10:56:08.521Z,99.90
2019-03-29T10:58:37.968Z,99.90
2019-03-29T11:01:08.865Z,99.90
2019-03-29T11:03:38.481Z,99.90
2019-03-29T11:06:07.953Z,99.90
2019-03-29T11:08:37.577Z,99.50
2019-03-29T11:11:07.249Z,98.40
2019-03-29T11:13:36.944Z,98.40
2019-03-29T11:16:06.550Z,97.90
2019-03-29T11:18:36.073Z,96.60
2019-03-29T11:21:06.565Z,97.60
2019-03-29T11:23:36.561Z,95.80
2019-03-29T11:26:06.156Z,95.80
2019-03-29T11:28:35.798Z,95.00
2019-03-29T11:31:05.401Z,94.00
2019-03-29T11:33:35.113Z,93.10
2019-03-29T11:36:04.761Z,92.90
2019-03-29T11:38:34.426Z,92.60
2019-03-29T11:41:04.113Z,92.60
2019-03-29T11:43:33.881Z,93.10
2019-03-29T11:46:03.637Z,92.90
2019-03-29T11:48:33.601Z,92.80
2019-03-29T11:51:03.213Z,93.30
2019-03-29T11:53:32.778Z,93.10
2019-03-29T11:56:02.386Z,93.00
2019-03-29T11:58:32.049Z,93.40
2019-03-29T12:01:01.626Z,93.50
2019-03-29T12:03:31.542Z,93.50
2019-03-29T12:06:01.178Z,92.10
2019-03-29T12:08:30.773Z,91.90
2019-03-29T12:11:00.486Z,91.90
2019-03-29T12:13:40.344Z,92.30
2019-03-29T12:16:01.448Z,92.00
2019-03-29T12:18:31.170Z,92.60
2019-03-29T12:21:00.658Z,92.90
2019-03-29T12:23:30.275Z,91.40
2019-03-29T12:25:59.830Z,91.60
2019-03-29T12:28:29.423Z,91.80
2019-03-29T12:30:59.098Z,91.90
2019-03-29T12:33:28.638Z,92.80
2019-03-29T12:35:58.238Z,92.30
2019-03-29T12:38:27.834Z,92.40
2019-03-29T12:40:57.401Z,92.30
2019-03-29T12:43:26.855Z,92.90
2019-03-29T12:46:00.267Z,93.20
2019-03-29T12:48:30.002Z,93.80
2019-03-29T12:50:59.781Z,94.20
2019-03-29T12:53:29.958Z,93.30
2019-03-29T12:55:59.438Z,93.40
2019-03-29T12:58:28.895Z,92.50
2019-03-29T13:00:58.505Z,92.30
2019-03-29T13:03:28.031Z,92.00
2019-03-29T13:05:58.044Z,91.80
2019-03-29T13:08:28.018Z,91.30
2019-03-29T13:10:58.056Z,91.20
2019-03-29T13:13:27.967Z,91.80
2019-03-29T13:15:57.578Z,91.60
2019-03-29T13:18:27.219Z,91.90
2019-03-29T13:20:56.913Z,91.70
2019-03-29T13:23:26.740Z,91.80
2019-03-29T13:25:56.435Z,91.80
2019-03-29T13:28:26.096Z,91.00
2019-03-29T13:30:55.604Z,91.50
2019-03-29T13:33:25.281Z,91.20
2019-03-29T13:35:55.227Z,91.20
2019-03-29T13:38:24.837Z,91.60
2019-03-29T13:40:54.347Z,91.60
2019-03-29T13:43:23.990Z,92.00
2019-03-29T13:45:53.551Z,91.60
2019-03-29T13:48:23.579Z,91.70
2019-03-29T13:50:53.391Z,91.40
2019-03-29T13:53:22.883Z,92.70
2019-03-29T13:55:52.399Z,92.10
2019-03-29T13:58:21.843Z,92.40
2019-03-29T14:01:03.019Z,92.90
2019-03-29T14:03:32.535Z,92.90
2019-03-29T14:06:02.451Z,93.50
2019-03-29T14:08:32.000Z,93.80
2019-03-29T14:11:01.580Z,94.60
2019-03-29T14:13:31.168Z,94.30
2019-03-29T14:16:01.215Z,93.20
2019-03-29T14:18:30.776Z,92.90
2019-03-29T14:21:00.856Z,92.10
2019-03-29T14:23:30.512Z,92.60
2019-03-29T14:26:00.163Z,92.40
2019-03-29T14:28:30.032Z,92.60
2019-03-29T14:30:59.698Z,92.80
2019-03-29T14:33:29.639Z,92.80
2019-03-29T14:35:59.351Z,93.10
2019-03-29T14:38:28.861Z,93.50
2019-03-29T14:40:58.561Z,93.10
2019-03-29T14:43:28.261Z,93.30
2019-03-29T14:45:57.897Z,93.50
2019-03-29T14:48:28.677Z,93.30
2019-03-29T14:50:58.941Z,92.70
2019-03-29T14:53:28.802Z,92.70
2019-03-29T14:55:58.437Z,93.10
2019-03-29T14:58:28.040Z,92.40
2019-03-29T15:00:57.621Z,92.60
2019-03-29T15:03:27.345Z,94.00
2019-03-29T15:05:56.953Z,94.30
2019-03-29T15:08:26.619Z,93.70
2019-03-29T15:10:56.209Z,93.30
2019-03-29T15:13:25.831Z,92.80
2019-03-29T15:15:55.352Z,92.60
2019-03-29T15:18:25.327Z,92.50
2019-03-29T15:20:54.932Z,91.80
2019-03-29T15:23:27.079Z,92.50
2019-03-29T15:25:56.714Z,92.80
2019-03-29T15:28:50.193Z,92.80
2019-03-29T15:31:19.850Z,93.10
2019-03-29T15:33:49.368Z,93.60
2019-03-29T15:36:24.719Z,93.70
2019-03-29T15:38:54.376Z,94.00
2019-03-29T15:41:29.922Z,94.00
2019-03-29T15:43:59.398Z,94.30
2019-03-29T15:46:28.958Z,94.50
2019-03-29T15:49:04.239Z,94.60
2019-03-29T15:51:33.755Z,94.50
2019-03-29T15:54:03.621Z,95.20
2019-03-29T15:56:33.242Z,94.90
2019-03-29T15:59:03.695Z,94.80
2019-03-29T16:01:33.206Z,95.10
2019-03-29T16:04:19.811Z,95.50
2019-03-29T16:06:49.447Z,96.40
2019-03-29T16:09:21.569Z,95.90
2019-03-29T16:11:51.183Z,96.40
2019-03-29T16:14:20.732Z,96.90
2019-03-29T16:16:50.558Z,96.90
2019-03-29T16:19:20.371Z,97.40
2019-03-29T16:21:50.027Z,97.20
2019-03-29T16:24:20.775Z,97.70
2019-03-29T16:26:50.363Z,97.60
2019-03-29T16:29:20.103Z,97.90
2019-03-29T16:31:49.767Z,97.80
2019-03-29T16:34:19.655Z,98.00
2019-03-29T16:36:49.337Z,98.80
2019-03-29T16:39:18.940Z,99.40
2019-03-29T16:41:48.521Z,99.50
2019-03-29T16:44:18.137Z,99.90
2019-03-29T16:46:48.115Z,99.90
2019-03-29T16:49:17.747Z,99.90
2019-03-29T16:51:47.268Z,99.90
2019-03-29T16:54:16.732Z,99.90
2019-03-29T16:56:46.298Z,99.90
2019-03-29T16:59:15.896Z,99.90
2019-03-29T17:01:45.721Z,99.90
2019-03-29T17:04:15.504Z,99.90
2019-03-29T17:06:45.736Z,99.90
2019-03-29T17:09:15.377Z,99.90
2019-03-29T17:11:45.277Z,99.90
2019-03-29T17:14:15.074Z,99.90
2019-03-29T17:16:47.377Z,99.90
2019-03-29T17:19:17.694Z,99.90
2019-03-29T17:21:47.441Z,99.90
2019-03-29T17:24:17.404Z,99.90
2019-03-29T17:27:06.740Z,99.90
2019-03-29T17:29:36.398Z,99.90
2019-03-29T17:32:06.000Z,99.90
2019-03-29T17:34:40.937Z,99.90
2019-03-29T17:37:10.625Z,99.90
2019-03-29T17:39:40.117Z,99.90
2019-03-29T17:42:09.729Z,99.90
2019-03-29T17:44:39.389Z,99.90
2019-03-29T17:47:24.097Z,99.90
2019-03-29T17:49:56.426Z,99.90
2019-03-29T17:52:26.145Z,99.90
2019-03-29T17:54:55.826Z,99.90
2019-03-29T17:57:25.441Z,99.90
2019-03-29T17:59:55.025Z,99.90
2019-03-29T18:02:24.782Z,99.90
2019-03-29T18:04:54.342Z,99.90
2019-03-29T18:07:24.178Z,99.90
2019-03-29T18:09:53.647Z,99.90
2019-03-29T18:12:23.251Z,99.90
2019-03-29T18:14:53.117Z,99.90
2019-03-29T18:17:22.754Z,99.90
2019-03-29T18:19:52.612Z,99.90
2019-03-29T18:22:22.236Z,99.90
2019-03-29T18:24:52.531Z,99.90
2019-03-29T18:27:22.210Z,99.90
2019-03-29T18:29:51.818Z,99.90
2019-03-29T18:32:21.926Z,99.90
2019-03-29T18:34:51.562Z,99.90
2019-03-29T18:37:22.186Z,99.90
2019-03-29T18:40:23.787Z,99.90
2019-03-29T18:42:53.537Z,99.90
2019-03-29T18:45:23.194Z,99.90
2019-03-29T18:47:53.244Z,99.90
2019-03-29T18:50:22.982Z,99.90
2019-03-29T18:52:52.917Z,99.90
2019-03-29T18:55:22.885Z,99.90
2019-03-29T18:57:52.398Z,99.90
2019-03-29T19:00:30.706Z,99.90
2019-03-29T19:03:00.619Z,99.90
2019-03-29T19:05:30.670Z,99.90
2019-03-29T19:08:00.343Z,99.90
2019-03-29T19:10:29.996Z,99.90
2019-03-29T19:12:59.522Z,99.90
2019-03-29T19:15:29.312Z,99.90
2019-03-29T19:17:58.817Z,99.90
2019-03-29T19:20:28.522Z,99.90
2019-03-29T19:22:58.084Z,99.90
2019-03-29T19:25:28.023Z,99.90
2019-03-29T19:27:57.562Z,99.90
2019-03-29T19:30:27.135Z,99.90
2019-03-29T19:32:56.892Z,99.90
2019-03-29T19:35:26.467Z,99.90
2019-03-29T19:37:56.107Z,99.90
2019-03-29T19:40:26.020Z,99.90
2019-03-29T19:42:56.124Z,99.90
2019-03-29T19:45:26.396Z,99.90
2019-03-29T19:47:56.064Z,99.90
2019-03-29T19:50:25.700Z,99.90
2019-03-29T19:52:55.516Z,99.90
2019-03-29T19:55:25.052Z,99.90
2019-03-29T19:57:54.974Z,99.90
2019-03-29T20:00:41.590Z,99.90
2019-03-29T20:03:11.439Z,99.90
2019-03-29T20:05:41.075Z,99.90
2019-03-29T20:08:10.712Z,99.90
2019-03-29T20:10:40.450Z,99.90
2019-03-29T20:13:10.124Z,99.90
2019-03-29T20:15:40.185Z,99.90
2019-03-29T20:18:09.808Z,99.90
2019-03-29T20:20:39.456Z,99.90
2019-03-29T20:23:09.084Z,99.90
2019-03-29T20:25:38.737Z,99.90
2019-03-29T20:28:08.427Z,99.90
2019-03-29T20:30:38.628Z,99.90
2019-03-29T20:33:08.173Z,99.90
2019-03-29T20:35:37.724Z,99.90
2019-03-29T20:38:07.424Z,99.90
2019-03-29T20:40:37.013Z,99.90
2019-03-29T20:43:06.645Z,99.90
2019-03-29T20:45:36.564Z,99.90
2019-03-29T20:48:06.213Z,99.90
2019-03-29T20:50:35.737Z,99.90
2019-03-29T20:53:05.373Z,99.90
2019-03-29T20:55:35.261Z,99.90
2019-03-29T20:58:04.893Z,99.90
2019-03-29T21:00:34.457Z,99.90
2019-03-29T21:03:04.061Z,99.90
2019-03-29T21:05:33.923Z,99.90
2019-03-29T21:08:03.643Z,99.90
2019-03-29T21:10:33.649Z,99.90
2019-03-29T21:13:03.222Z,99.90
2019-03-29T21:15:32.915Z,99.90
2019-03-29T21:18:02.552Z,99.90
2019-03-29T21:20:32.166Z,99.90
2019-03-29T21:23:01.882Z,99.90
2019-03-29T21:25:31.329Z,99.90
2019-03-29T21:28:00.889Z,99.90
2019-03-29T21:30:30.590Z,99.90
2019-03-29T21:33:00.221Z,99.90
2019-03-29T21:35:29.772Z,99.90
2019-03-29T21:37:59.738Z,99.90
2019-03-29T21:40:29.350Z,99.90
2019-03-29T21:43:01.659Z,99.90
2019-03-29T21:45:30.345Z,99.90
2019-03-29T21:48:04.894Z,99.90
2019-03-29T21:50:31.150Z,99.90
2019-03-29T21:53:00.702Z,99.90
2019-03-29T21:55:30.301Z,99.90
2019-03-29T21:57:59.830Z,99.90
2019-03-29T22:00:29.426Z,99.90
2019-03-29T22:02:59.070Z,99.90
2019-03-29T22:05:28.703Z,99.90
2019-03-29T22:07:58.724Z,99.90
2019-03-29T22:10:28.634Z,99.90
2019-03-29T22:12:58.542Z,99.90
2019-03-29T22:15:28.518Z,99.90
2019-03-29T22:17:58.159Z,99.90
2019-03-29T22:20:28.148Z,99.90
2019-03-29T22:22:57.666Z,99.90
2019-03-29T22:25:27.310Z,99.90
2019-03-29T22:27:56.926Z,99.90
2019-03-29T22:30:26.551Z,99.90
2019-03-29T22:32:56.166Z,99.90
2019-03-29T22:35:25.922Z,99.90
2019-03-29T22:37:55.495Z,99.90
2019-03-29T22:40:25.087Z,99.90
2019-03-29T22:42:54.682Z,99.90
2019-03-29T22:45:24.319Z,99.90
2019-03-29T22:47:53.963Z,99.90
2019-03-29T22:50:23.603Z,99.90
2019-03-29T22:52:54.671Z,99.90
2019-03-29T22:55:24.635Z,99.90
2019-03-29T22:57:54.308Z,99.90
2019-03-29T23:00:35.521Z,99.90
2019-03-29T23:03:05.619Z,99.90
2019-03-29T23:05:35.320Z,99.90
2019-03-29T23:08:04.987Z,99.90
2019-03-29T23:10:34.844Z,99.90
2019-03-29T23:13:04.497Z,99.90
2019-03-29T23:15:34.113Z,99.90
2019-03-29T23:18:03.713Z,99.90
2019-03-29T23:20:33.397Z,99.90
2019-03-29T23:23:02.938Z,99.90
2019-03-29T23:25:32.851Z,99.90
2019-03-29T23:28:02.464Z,99.90
2019-03-29T23:30:32.421Z,99.90
2019-03-29T23:33:01.918Z,99.90
2019-03-29T23:35:31.562Z,99.90
2019-03-29T23:38:02.150Z,99.90
2019-03-29T23:40:31.722Z,99.90
2019-03-29T23:43:01.238Z,99.90
2019-03-29T23:45:30.910Z,99.90
2019-03-29T23:48:00.422Z,99.90
2019-03-29T23:50:30.021Z,99.90
2019-03-29T23:52:59.546Z,99.90
2019-03-29T23:55:28.994Z,99.90
2019-03-29T23:57:58.966Z,99.90
